Terminal Aerodrome Forecast
Issued by NWS Mt. Holly, NJ

Home | Current Version | Previous Version | Text Only | Print | Product List | Glossary On
Versions: 1 2 3 4 5 6 7 8 9 10 11 12 13 14 15 16 17 18 19 20 21 22 23 24 25
000
FTUS41 KPHI 241030 AAB
TAFILG
TAF AMD
KILG 241030Z 2410/2506 35012G22KT P6SM -DZ OVC015
     FM241700 33014G24KT P6SM OVC025
     FM242200 32010G20KT P6SM BKN035=

USA.gov is the U.S. government's official web portal to all federal, state and local government web resources and services.